Time;durP1;ratioP1;P1;durP2;ratioP2;P2;SDS_P1;SDS_P2;PMS_P1;PMS_P2;Temp;Humidity;BMP_temperature;BMP_pressure;BME280_temperature;BME280_humidity;BME280_pressure;Samples;Min_cycle;Max_cycle;Signal;HPM_P1;HPM_P2
2022/12/16 00:00:36;;;;;;;1.73;1.40;;;;;;;;;;5016264;28;20029;-71
2022/12/16 00:03:02;;;;;;;2.05;1.45;;;;;;;;;;5015893;28;20110;-71
2022/12/16 00:05:28;;;;;;;3.85;1.75;;;;;;;;;;5014680;28;20022;-71
2022/12/16 00:07:55;;;;;;;5.85;2.92;;;;;;;;;;5015684;28;20032;-72
2022/12/16 00:10:21;;;;;;;8.73;3.67;;;;;;;;;;5015568;28;20038;-71
2022/12/16 00:12:48;;;;;;;5.13;2.83;;;;;;;;;;5015544;28;20038;-71
2022/12/16 00:15:14;;;;;;;6.18;2.03;;;;;;;;;;5015895;28;20030;-71
2022/12/16 00:17:40;;;;;;;2.50;1.17;;;;;;;;;;5016112;28;20132;-71
2022/12/16 00:20:07;;;;;;;1.80;1.30;;;;;;;;;;5015360;28;20022;-71
2022/12/16 00:22:33;;;;;;;1.98;1.42;;;;;;;;;;5015700;28;20040;-72
2022/12/16 00:25:00;;;;;;;2.72;1.70;;;;;;;;;;5015144;28;20022;-71
2022/12/16 00:27:26;;;;;;;2.78;1.20;;;;;;;;;;5015327;28;20030;-71
2022/12/16 00:29:52;;;;;;;2.42;1.67;;;;;;;;;;5015344;28;20034;-71
2022/12/16 00:32:19;;;;;;;2.38;1.33;;;;;;;;;;5015458;28;20390;-72
2022/12/16 00:34:45;;;;;;;7.20;1.60;;;;;;;;;;5014099;28;20044;-71
2022/12/16 00:37:12;;;;;;;1.75;1.10;;;;;;;;;;5015290;28;20042;-71
2022/12/16 00:39:38;;;;;;;1.27;1.08;;;;;;;;;;5014808;28;20513;-71
2022/12/16 00:42:05;;;;;;;1.20;1.10;;;;;;;;;;5015141;28;20021;-72
2022/12/16 00:44:31;;;;;;;1.90;1.13;;;;;;;;;;5015130;28;20026;-71
2022/12/16 00:46:57;;;;;;;2.70;1.30;;;;;;;;;;5014887;28;20018;-71
2022/12/16 00:49:24;;;;;;;4.85;1.70;;;;;;;;;;5015054;28;20475;-71
2022/12/16 00:51:50;;;;;;;3.65;1.40;;;;;;;;;;5015119;28;20022;-71
2022/12/16 00:54:16;;;;;;;2.58;1.27;;;;;;;;;;5014255;28;20048;-71
2022/12/16 00:56:42;;;;;;;3.22;1.23;;;;;;;;;;5015245;28;20401;-72
2022/12/16 00:59:09;;;;;;;2.63;1.42;;;;;;;;;;5015024;28;20030;-71
2022/12/16 01:01:35;;;;;;;3.67;1.73;;;;;;;;;;5014848;28;20021;-71
2022/12/16 01:04:01;;;;;;;3.13;1.50;;;;;;;;;;5013801;28;20032;-72
2022/12/16 01:06:28;;;;;;;3.15;1.38;;;;;;;;;;5014267;28;20471;-72
2022/12/16 01:08:54;;;;;;;2.40;1.48;;;;;;;;;;5012773;28;20022;-71
2022/12/16 01:11:20;;;;;;;3.72;1.10;;;;;;;;;;5014652;28;20040;-71
2022/12/16 01:13:50;;;;;;;1.98;1.10;;;;;;;;;;5014394;28;20044;-71
2022/12/16 01:16:16;;;;;;;1.17;1.00;;;;;;;;;;5014688;28;20018;-71
2022/12/16 01:18:43;;;;;;;2.55;1.15;;;;;;;;;;5014253;28;20025;-72
2022/12/16 01:21:11;;;;;;;1.42;1.00;;;;;;;;;;5014300;28;20038;-71
2022/12/16 01:23:37;;;;;;;1.48;0.90;;;;;;;;;;5014072;28;20501;-71
2022/12/16 01:26:04;;;;;;;1.20;1.08;;;;;;;;;;5014184;28;20056;-71
2022/12/16 01:28:31;;;;;;;1.70;1.10;;;;;;;;;;5014311;28;20032;-71
2022/12/16 01:31:00;;;;;;;3.55;1.00;;;;;;;;;;5014380;28;20025;-72
2022/12/16 01:33:30;;;;;;;2.80;1.05;;;;;;;;;;5014245;28;20032;-71
2022/12/16 01:36:03;;;;;;;2.00;1.00;;;;;;;;;;5014381;28;20022;-71
2022/12/16 01:38:30;;;;;;;1.15;0.93;;;;;;;;;;5013634;28;20049;-71
2022/12/16 01:40:56;;;;;;;4.15;1.40;;;;;;;;;;5014215;28;20030;-71
2022/12/16 01:43:26;;;;;;;3.47;1.88;;;;;;;;;;5014106;28;20029;-72
2022/12/16 01:45:56;;;;;;;2.72;1.05;;;;;;;;;;5013731;28;20029;-71
2022/12/16 01:48:31;;;;;;;1.30;1.00;;;;;;;;;;5013858;28;20026;-71
2022/12/16 01:51:01;;;;;;;1.45;0.95;;;;;;;;;;5013803;28;20483;-71
2022/12/16 01:53:28;;;;;;;1.63;1.00;;;;;;;;;;5013489;28;20038;-71
2022/12/16 01:55:55;;;;;;;1.75;1.00;;;;;;;;;;5013763;28;20032;-71
2022/12/16 01:58:23;;;;;;;2.05;0.93;;;;;;;;;;5013944;28;20037;-71
2022/12/16 02:00:50;;;;;;;2.47;0.93;;;;;;;;;;5013659;28;20148;-71
2022/12/16 02:03:16;;;;;;;1.73;1.00;;;;;;;;;;5013576;28;20030;-72
2022/12/16 02:05:44;;;;;;;2.60;1.30;;;;;;;;;;5013969;28;20026;-72
2022/12/16 02:08:14;;;;;;;4.10;1.27;;;;;;;;;;5013206;28;20049;-71
2022/12/16 02:10:43;;;;;;;1.50;1.10;;;;;;;;;;5013314;28;20014;-72
2022/12/16 02:13:28;;;;;;;1.70;1.02;;;;;;;;;;5013296;28;20402;-71
2022/12/16 02:16:01;;;;;;;0.95;0.85;;;;;;;;;;5013430;28;20018;-71
2022/12/16 02:18:27;;;;;;;2.10;1.10;;;;;;;;;;5013489;28;20032;-71
2022/12/16 02:20:59;;;;;;;2.45;1.08;;;;;;;;;;5012929;28;20034;-71
2022/12/16 02:23:28;;;;;;;1.30;0.85;;;;;;;;;;5013567;28;20030;-71
2022/12/16 02:26:01;;;;;;;1.25;0.63;;;;;;;;;;5013063;28;20036;-71
2022/12/16 02:28:39;;;;;;;4.93;0.90;;;;;;;;;;5013186;28;20034;-71
2022/12/16 02:31:08;;;;;;;3.50;0.90;;;;;;;;;;5013350;28;20014;-71
2022/12/16 02:33:37;;;;;;;1.50;0.90;;;;;;;;;;5013034;28;20033;-71
2022/12/16 02:36:16;;;;;;;1.17;0.88;;;;;;;;;;5013055;28;20018;-71
2022/12/16 02:38:55;;;;;;;2.90;1.13;;;;;;;;;;5012816;28;20050;-71
2022/12/16 02:41:24;;;;;;;1.65;0.93;;;;;;;;;;5013082;28;20030;-71
2022/12/16 02:43:55;;;;;;;3.03;0.60;;;;;;;;;;5012794;28;20441;-71
2022/12/16 02:46:31;;;;;;;3.83;0.75;;;;;;;;;;5013135;28;20028;-71
2022/12/16 02:49:04;;;;;;;0.90;0.85;;;;;;;;;;5012770;28;20505;-71
2022/12/16 02:51:33;;;;;;;1.23;1.10;;;;;;;;;;5012386;28;20026;-71
2022/12/16 02:53:59;;;;;;;7.93;4.75;;;;;;;;;;5012477;28;20042;-71
2022/12/16 02:56:35;;;;;;;6.45;2.80;;;;;;;;;;5012792;28;20402;-72
2022/12/16 02:59:10;;;;;;;1.77;1.45;;;;;;;;;;5012889;28;20504;-72
2022/12/16 03:01:36;;;;;;;1.77;0.90;;;;;;;;;;5013106;28;20030;-71
2022/12/16 03:04:06;;;;;;;5.22;1.20;;;;;;;;;;5012941;28;20022;-71
2022/12/16 03:06:33;;;;;;;1.35;1.00;;;;;;;;;;5012278;28;20371;-71
2022/12/16 03:09:01;;;;;;;2.15;0.90;;;;;;;;;;5012732;28;20026;-71
2022/12/16 03:11:29;;;;;;;1.30;1.20;;;;;;;;;;5012416;28;20414;-71
2022/12/16 03:13:56;;;;;;;1.10;1.00;;;;;;;;;;5012531;28;20433;-71
2022/12/16 03:16:25;;;;;;;3.35;1.00;;;;;;;;;;5012679;28;20022;-71
2022/12/16 03:18:54;;;;;;;1.02;0.90;;;;;;;;;;5012518;28;20523;-71
2022/12/16 03:21:22;;;;;;;1.10;0.93;;;;;;;;;;5013353;28;20030;-71
2022/12/16 03:23:51;;;;;;;3.00;1.00;;;;;;;;;;5011271;28;20024;-71
2022/12/16 03:26:47;;;;;;;2.67;1.00;;;;;;;;;;5012732;28;20084;-72
2022/12/16 03:29:21;;;;;;;3.42;1.25;;;;;;;;;;5010956;28;20037;-71
2022/12/16 03:31:48;;;;;;;3.42;1.63;;;;;;;;;;5016386;28;20029;-71
2022/12/16 03:34:17;;;;;;;4.38;1.48;;;;;;;;;;5015987;28;20499;-71
2022/12/16 03:36:46;;;;;;;5.18;1.90;;;;;;;;;;5014938;28;20080;-71
2022/12/16 03:39:13;;;;;;;2.92;1.30;;;;;;;;;;5016523;28;20060;-71
2022/12/16 03:41:40;;;;;;;2.90;1.25;;;;;;;;;;5016080;28;20022;-71
2022/12/16 03:44:07;;;;;;;3.10;1.20;;;;;;;;;;5016159;28;20079;-71
2022/12/16 03:46:33;;;;;;;1.92;0.90;;;;;;;;;;5016357;28;20022;-72
2022/12/16 03:49:00;;;;;;;1.15;1.00;;;;;;;;;;4996696;28;20056;-71
2022/12/16 03:51:26;;;;;;;2.20;0.85;;;;;;;;;;4996505;28;20482;-71
2022/12/16 03:53:53;;;;;;;1.10;1.00;;;;;;;;;;4996525;28;20077;-72
2022/12/16 03:56:19;;;;;;;1.75;0.82;;;;;;;;;;4996388;28;20030;-71
2022/12/16 03:58:45;;;;;;;0.88;0.70;;;;;;;;;;4996519;28;20038;-70
2022/12/16 04:01:12;;;;;;;1.00;0.77;;;;;;;;;;4996078;28;20040;-71
2022/12/16 04:03:38;;;;;;;1.40;0.77;;;;;;;;;;4996124;28;20021;-70
2022/12/16 04:06:05;;;;;;;2.47;0.85;;;;;;;;;;4996019;28;20487;-71
2022/12/16 04:08:32;;;;;;;3.28;0.93;;;;;;;;;;4996043;28;20433;-71
2022/12/16 04:24:49;;;;;;;2.67;0.90;;;;;;;;;;4995950;28;20018;-71
2022/12/16 04:27:24;;;;;;;1.50;0.85;;;;;;;;;;4995821;28;20498;-71
